Airfield :
LOGIN :

Register | Disclaimer

   EN    FR    IT 

 










Legend :    VFR   Marginal VFR   IFR   Intensive IFR   Very Intensive IFR
Visi :
Ceiling :
>= 8 km
>= 3000ft
5 to 8 km
1000 to 3000 ft
1500m to 5 km
500 to 1000 ft
800 to 1500m
200 to 500 ft
< 800m
< 200 ft
Symbols :   Thunderstorms  Fog  Heavy snow  Heavy precipitations  Wind > 20 kt
SIGMETs :     Misc.  Thunderstorms  Icing  Turbulence  Mountain Waves  Volcanic Ashes






- Airport Elevation : 34 ft
- IATA code : BLK


EGNH - Blackpool

CURRENT METAR :
  • 222020Z 11012KT 9999 FEW031 SCT042 08/06 Q0994 WS RWY10

EXPIRED METARs :
  • 221950Z 10012KT 9999 -RA FEW022 SCT026 BKN038 08/06 Q0994 WS RWY10
  • 221850Z 11012KT 9999 -RA SCT024 BKN031 08/06 Q0994 WS RWY10
  • 221820Z 11012KT 9999 -RA SCT025 BKN039 08/06 Q0994 WS RWY10
  • 221750Z 11011KT 9999 -RA SCT016 BKN032 08/06 Q0994 WS RWY10

TAF TAF EGNH
Valid from the 22 at 18:00 until the 22 at 21:00 UTC


221701Z 2218/2221 09010KT 9999 SCT014
TEMPO 2218/2221 6000 RA BKN014
ATIS : +44 1253 343 434 (x8315)



MET'MAP, your aeronautical weather chart ! - Copyright ORBIFLY December 2007 - Disclaimer

ORBIFLY MET'MAP TEAM :

Programming & Development : Alexandra Zaïnal
Concept & Development : Baudouin d'Aumeries
Co-Development & Prog : Marc-Olivier Méhu
Technical & hardware support : Manuel Goepfert

Contact : metmap@orbifly.com




SOURCES & CREDITS :

   NOAA